Time;durP1;ratioP1;P1;durP2;ratioP2;P2;SDS_P1;SDS_P2;PMS_P1;PMS_P2;Temp;Humidity;BMP_temperature;BMP_pressure;BME280_temperature;BME280_humidity;BME280_pressure;Samples;Min_cycle;Max_cycle;Signal;HPM_P1;HPM_P2
2022/01/19 00:00:58;;;;;;;11.87;10.40;;;2.00;99.90;;;;;;5071681;28;20562;-66
2022/01/19 00:03:25;;;;;;;12.47;10.03;;;2.00;99.90;;;;;;5071894;28;20485;-66
2022/01/19 00:05:52;;;;;;;12.53;10.20;;;1.90;99.90;;;;;;5071644;28;21112;-66
2022/01/19 00:08:21;;;;;;;14.50;9.50;;;1.80;99.90;;;;;;5071862;28;20835;-66
2022/01/19 00:10:51;;;;;;;11.57;9.97;;;1.90;99.90;;;;;;5071893;28;20509;-66
2022/01/19 00:13:19;;;;;;;12.70;10.10;;;2.00;99.90;;;;;;5072190;28;20455;-66
2022/01/19 00:15:46;;;;;;;14.93;10.37;;;2.00;99.90;;;;;;5072020;28;20539;-65
2022/01/19 00:18:13;;;;;;;17.10;9.70;;;2.00;99.90;;;;;;5072165;28;20872;-65
2022/01/19 00:20:40;;;;;;;13.43;10.53;;;2.00;99.90;;;;;;5071514;28;20455;-66
2022/01/19 00:23:08;;;;;;;11.93;9.77;;;2.00;99.90;;;;;;5071940;28;20489;-66
2022/01/19 00:25:34;;;;;;;16.30;10.43;;;1.90;99.90;;;;;;5071639;28;20436;-65
2022/01/19 00:28:03;;;;;;;14.23;9.60;;;1.80;99.90;;;;;;5071568;28;20940;-65
2022/01/19 00:30:30;;;;;;;14.77;10.53;;;1.70;99.90;;;;;;5071130;28;20971;-66
2022/01/19 00:32:58;;;;;;;12.80;10.03;;;1.60;99.90;;;;;;5071653;28;20440;-65
2022/01/19 00:35:24;;;;;;;14.87;10.30;;;1.70;99.90;;;;;;5071372;28;20444;-65
2022/01/19 00:37:51;;;;;;;15.37;10.63;;;1.60;99.90;;;;;;5071549;28;20465;-66
2022/01/19 00:40:19;;;;;;;14.60;10.87;;;1.60;99.90;;;;;;5070861;28;20458;-66
2022/01/19 00:42:46;;;;;;;19.43;11.80;;;1.60;99.90;;;;;;5070806;28;20950;-65
2022/01/19 00:45:16;;;;;;;14.97;10.77;;;1.60;99.90;;;;;;5071353;28;20454;-65
2022/01/19 00:47:43;;;;;;;13.90;10.00;;;1.50;99.90;;;;;;5071317;28;20529;-65
2022/01/19 00:50:12;;;;;;;16.40;10.80;;;1.50;99.90;;;;;;5071034;28;20439;-65
2022/01/19 00:52:39;;;;;;;13.80;10.10;;;1.30;99.90;;;;;;5071060;28;20513;-65
2022/01/19 00:55:09;;;;;;;15.30;11.60;;;1.20;99.90;;;;;;5070880;28;20863;-65
2022/01/19 00:57:36;;;;;;;16.70;11.43;;;1.20;99.90;;;;;;5070843;28;20839;-65
2022/01/19 01:00:03;;;;;;;18.57;11.87;;;1.20;99.90;;;;;;5070503;28;20443;-65
2022/01/19 01:02:32;;;;;;;17.03;12.00;;;1.30;99.90;;;;;;5070696;28;20479;-65
2022/01/19 01:04:59;;;;;;;14.00;10.53;;;1.30;99.90;;;;;;5070963;28;20498;-65
2022/01/19 01:07:27;;;;;;;16.53;12.70;;;1.30;99.90;;;;;;5071029;28;20446;-65
2022/01/19 01:09:54;;;;;;;17.93;11.13;;;1.20;99.90;;;;;;5070686;28;21011;-65
2022/01/19 01:12:27;;;;;;;15.00;11.07;;;1.20;99.90;;;;;;5070641;28;20471;-64
2022/01/19 01:20:24;;;;;;;14.47;10.30;;;1.00;99.90;;;;;;5070739;28;20450;-65
2022/01/19 01:22:51;;;;;;;16.10;11.57;;;1.00;99.90;;;;;;5070844;28;21020;-65
2022/01/19 01:25:18;;;;;;;15.87;11.67;;;0.90;99.90;;;;;;5070699;28;20459;-65
2022/01/19 01:27:45;;;;;;;15.70;12.67;;;0.90;99.90;;;;;;5070883;28;20546;-64
2022/01/19 01:30:12;;;;;;;13.13;10.37;;;0.90;99.90;;;;;;5070444;28;20893;-65
2022/01/19 01:32:40;;;;;;;16.53;11.57;;;0.90;99.90;;;;;;5070555;28;20995;-65
2022/01/19 01:35:09;;;;;;;15.97;11.93;;;0.80;99.90;;;;;;5070760;28;20450;-66
2022/01/19 01:37:36;;;;;;;20.90;13.40;;;0.80;99.90;;;;;;5070777;28;20530;-65
2022/01/19 01:40:08;;;;;;;17.83;13.33;;;0.80;99.90;;;;;;5070219;28;20537;-65
2022/01/19 01:42:35;;;;;;;16.80;11.87;;;0.80;99.90;;;;;;5070458;28;20830;-65
2022/01/19 01:45:03;;;;;;;15.63;11.70;;;0.70;99.90;;;;;;5070481;28;20531;-65
2022/01/19 01:47:33;;;;;;;16.30;12.50;;;0.60;99.90;;;;;;5070265;28;20527;-65
2022/01/19 01:55:35;;;;;;;20.30;12.40;;;0.40;99.90;;;;;;5070300;28;20454;-65
2022/01/19 01:58:01;;;;;;;18.70;13.50;;;0.40;99.90;;;;;;5070196;28;20455;-65
2022/01/19 02:00:28;;;;;;;21.53;13.10;;;0.40;99.90;;;;;;5069550;28;20455;-65
2022/01/19 02:02:56;;;;;;;21.63;13.97;;;0.50;99.90;;;;;;5069832;28;20479;-65
2022/01/19 02:05:26;;;;;;;15.77;11.60;;;0.50;99.90;;;;;;5069993;28;20839;-65
2022/01/19 02:08:04;;;;;;;16.70;12.00;;;0.40;99.90;;;;;;5070012;28;20504;-66
2022/01/19 02:10:38;;;;;;;15.20;11.63;;;0.40;99.90;;;;;;5069252;28;20447;-66
2022/01/19 02:16:18;;;;;;;17.27;12.27;;;0.10;99.90;;;;;;5069909;28;20414;-65
2022/01/19 02:21:45;;;;;;;19.27;13.60;;;0.10;99.90;;;;;;5069192;28;20856;-65
2022/01/19 02:24:15;;;;;;;17.93;12.23;;;0.10;99.90;;;;;;5069534;28;21056;-65
2022/01/19 02:26:55;;;;;;;22.53;13.87;;;0.20;99.90;;;;;;5069804;28;20455;-65
2022/01/19 02:30:08;;;;;;;21.20;12.63;;;0.10;99.90;;;;;;5069300;28;20649;-65
2022/01/19 02:40:48;;;;;;;20.13;13.00;;;-0.20;99.90;;;;;;5069153;28;20443;-66
2022/01/19 02:43:21;;;;;;;19.10;14.03;;;-0.20;99.90;;;;;;5069422;28;20475;-65
2022/01/19 02:51:18;;;;;;;18.60;13.73;;;-0.10;99.90;;;;;;5069227;28;20449;-65
2022/01/19 02:53:46;;;;;;;18.13;13.63;;;-0.20;99.90;;;;;;5069311;28;20535;-66
2022/01/19 02:56:20;;;;;;;19.60;13.33;;;-0.20;99.90;;;;;;5069253;28;21016;-65
2022/01/19 02:58:50;;;;;;;19.50;14.00;;;-0.20;99.90;;;;;;5069449;28;20454;-67
2022/01/19 03:09:31;;;;;;;16.90;14.00;;;-0.20;99.90;;;;;;5072966;28;20927;-65
2022/01/19 03:11:58;;;;;;;24.07;14.07;;;-0.20;99.90;;;;;;5073257;28;21037;-65
2022/01/19 03:14:24;;;;;;;21.23;14.57;;;-0.20;99.90;;;;;;5073100;28;20451;-65
2022/01/19 03:16:51;;;;;;;23.00;14.70;;;-0.20;99.90;;;;;;5073435;28;20459;-66
2022/01/19 03:19:18;;;;;;;22.60;14.97;;;-0.20;99.90;;;;;;5072765;28;20522;-66
2022/01/19 03:21:45;;;;;;;20.43;14.23;;;-0.20;99.90;;;;;;5072974;28;20498;-65
2022/01/19 03:24:12;;;;;;;23.00;14.37;;;-0.30;99.90;;;;;;5072964;28;20482;-66
2022/01/19 03:26:41;;;;;;;24.67;14.67;;;-0.20;99.90;;;;;;5073273;28;20494;-66
2022/01/19 03:29:08;;;;;;;20.43;15.33;;;-0.20;99.90;;;;;;5072728;28;20445;-65
2022/01/19 03:31:35;;;;;;;19.57;13.77;;;-0.20;99.90;;;;;;5072575;28;20516;-66
2022/01/19 03:34:02;;;;;;;21.30;14.90;;;-0.20;99.90;;;;;;5072653;28;20453;-65
2022/01/19 03:36:29;;;;;;;22.90;14.73;;;-0.20;99.90;;;;;;5072680;28;20445;-65
2022/01/19 03:38:56;;;;;;;21.50;14.23;;;-0.20;99.90;;;;;;5072781;28;20460;-67
2022/01/19 03:41:23;;;;;;;18.63;14.00;;;-0.30;99.90;;;;;;5072267;28;20972;-66
2022/01/19 03:43:52;;;;;;;20.63;14.53;;;-0.30;99.90;;;;;;5072601;28;20866;-65
2022/01/19 03:46:21;;;;;;;21.70;15.63;;;-0.20;99.90;;;;;;5072513;28;20454;-65
2022/01/19 03:48:55;;;;;;;23.90;13.77;;;-0.20;99.90;;;;;;5072407;28;20512;-66
2022/01/19 03:51:22;;;;;;;19.20;14.97;;;-0.20;99.90;;;;;;5071996;28;20474;-65
2022/01/19 03:53:49;;;;;;;19.00;13.70;;;-0.20;99.90;;;;;;5072684;28;20457;-65
2022/01/19 03:56:16;;;;;;;20.97;13.63;;;-0.20;99.90;;;;;;5072692;28;20480;-65
2022/01/19 03:58:43;;;;;;;20.20;14.50;;;-0.20;99.90;;;;;;5072552;28;20457;-65
2022/01/19 04:01:12;;;;;;;22.10;14.73;;;-0.20;99.90;;;;;;5072100;28;20466;-66
2022/01/19 04:04:03;;;;;;;18.37;14.67;;;-0.20;99.90;;;;;;5072294;28;20493;-66
2022/01/19 04:06:51;;;;;;;23.30;14.20;;;-0.30;99.90;;;;;;5072548;28;20451;-65
2022/01/19 04:09:17;;;;;;;22.50;14.80;;;-0.30;99.90;;;;;;5071831;28;20443;-67
2022/01/19 04:11:44;;;;;;;17.40;12.93;;;-0.40;99.90;;;;;;5072422;28;20840;-66
2022/01/19 04:14:23;;;;;;;21.47;15.83;;;-0.40;99.90;;;;;;5072204;28;20533;-66
2022/01/19 04:16:52;;;;;;;21.10;14.47;;;-0.40;99.90;;;;;;5071387;28;20504;-66
2022/01/19 04:19:29;;;;;;;19.50;15.07;;;-0.40;99.90;;;;;;5071991;28;20452;-66
2022/01/19 04:21:57;;;;;;;19.50;13.30;;;-0.50;99.90;;;;;;5071996;28;20472;-65
2022/01/19 04:24:25;;;;;;;18.70;13.70;;;-0.50;99.90;;;;;;5072015;28;20486;-66
2022/01/19 04:29:39;;;;;;;22.47;14.53;;;-0.60;99.90;;;;;;5053623;28;20431;-66
2022/01/19 04:32:12;;;;;;;20.03;15.00;;;-0.50;99.90;;;;;;5071506;28;20559;-66
2022/01/19 04:34:40;;;;;;;19.40;14.20;;;-0.40;99.90;;;;;;5071925;28;20450;-66
2022/01/19 04:48:19;;;;;;;17.00;13.80;;;-0.70;99.90;;;;;;5070690;28;20987;-66
2022/01/19 05:01:51;;;;;;;19.57;14.50;;;-0.60;99.90;;;;;;5071233;28;20507;-66
2022/01/19 05:04:29;;;;;;;21.53;15.60;;;-0.60;99.90;;;;;;5070932;28;20498;-65
2022/01/19 05:07:08;;;;;;;21.80;14.10;;;-0.70;99.90;;;;;;5071112;28;20494;-66
2022/01/19 05:15:12;;;;;;;18.43;14.17;;;-0.90;99.90;;;;;;5045415;28;20435;-68
2022/01/19 05:17:40;;;;;;;24.87;14.83;;;-1.00;99.90;;;;;;5070984;28;20561;-66
2022/01/19 05:20:10;;;;;;;22.27;15.23;;;-0.90;99.90;;;;;;5070881;28;20447;-66
2022/01/19 05:22:38;;;;;;;30.87;16.20;;;-1.00;99.90;;;;;;5070987;28;20908;-66
2022/01/19 05:25:05;;;;;;;26.03;15.67;;;-1.10;99.90;;;;;;5070855;28;20475;-66
2022/01/19 05:27:32;;;;;;;25.57;16.00;;;-1.00;99.90;;;;;;5071566;28;20531;-65
2022/01/19 05:29:59;;;;;;;26.63;16.03;;;-0.90;99.90;;;;;;5070891;28;20449;-66
2022/01/19 05:32:26;;;;;;;24.70;14.37;;;-0.80;99.90;;;;;;5085706;28;20474;-66
2022/01/19 05:34:53;;;;;;;31.80;17.30;;;-0.90;99.90;;;;;;5091524;28;20449;-64
2022/01/19 05:37:21;;;;;;;23.07;16.47;;;-0.90;99.90;;;;;;5090050;28;20453;-68
2022/01/19 05:39:48;;;;;;;27.77;15.70;;;-0.80;99.90;;;;;;5090837;28;20447;-64
2022/01/19 05:42:16;;;;;;;23.37;15.60;;;-0.70;99.90;;;;;;5091583;28;20546;-65
2022/01/19 05:44:44;;;;;;;23.10;16.30;;;-0.70;99.90;;;;;;5091299;28;20574;-65
2022/01/19 05:47:11;;;;;;;23.90;17.20;;;-0.80;99.90;;;;;;5091221;28;20454;-65
2022/01/19 05:49:38;;;;;;;26.00;15.03;;;-0.90;99.90;;;;;;5091258;28;20450;-65
2022/01/19 05:52:06;;;;;;;24.27;15.83;;;-1.00;99.90;;;;;;5091987;28;20561;-65
2022/01/19 05:54:34;;;;;;;23.13;16.13;;;-1.00;99.90;;;;;;5091574;28;20481;-66
2022/01/19 05:57:01;;;;;;;26.03;18.00;;;-1.00;99.90;;;;;;5081967;28;20542;-65
2022/01/19 05:59:28;;;;;;;27.07;17.37;;;-1.10;99.90;;;;;;5099076;28;20832;-62
2022/01/19 06:01:56;;;;;;;25.37;18.67;;;-1.10;99.90;;;;;;5109759;28;20547;-63
2022/01/19 06:04:23;;;;;;;29.37;18.20;;;-1.10;99.90;;;;;;5112323;28;20478;-62
2022/01/19 06:06:52;;;;;;;25.83;17.90;;;-1.10;99.90;;;;;;5110160;28;20450;-59
2022/01/19 06:09:33;;;;;;;30.63;16.80;;;-1.00;99.90;;;;;;5099414;28;20460;-65
2022/01/19 06:12:04;;;;;;;20.80;15.50;;;-0.90;99.90;;;;;;5088263;28;20468;-62
2022/01/19 06:14:32;;;;;;;22.77;15.50;;;-1.00;99.90;;;;;;5111167;28;20824;-63
2022/01/19 06:16:59;;;;;;;26.73;17.03;;;-1.10;99.90;;;;;;5109648;28;20445;-59
2022/01/19 06:19:26;;;;;;;22.83;14.93;;;-1.10;99.90;;;;;;5092231;28;20481;-62
2022/01/19 06:21:53;;;;;;;23.47;14.63;;;-1.10;99.90;;;;;;5088188;28;20485;-62
2022/01/19 06:24:20;;;;;;;23.90;15.13;;;-1.10;99.90;;;;;;5082827;28;20483;-67
2022/01/19 06:26:48;;;;;;;24.60;15.57;;;-1.20;99.90;;;;;;5089185;28;20444;-63
2022/01/19 06:29:16;;;;;;;30.00;16.57;;;-1.20;99.90;;;;;;5089667;28;20450;-63
2022/01/19 06:31:43;;;;;;;25.90;15.67;;;-1.20;99.90;;;;;;5089473;28;20477;-64
2022/01/19 06:34:10;;;;;;;28.07;15.97;;;-1.20;99.90;;;;;;5090319;28;20433;-64
2022/01/19 06:36:37;;;;;;;22.00;15.60;;;-1.10;99.90;;;;;;5091255;28;20444;-64
2022/01/19 06:39:04;;;;;;;23.83;16.10;;;-1.00;99.90;;;;;;5089944;28;20450;-63
2022/01/19 06:41:31;;;;;;;23.97;16.73;;;-0.90;99.90;;;;;;5090981;28;20905;-63
2022/01/19 06:43:58;;;;;;;24.40;15.17;;;-0.80;99.90;;;;;;5090936;28;20482;-63
2022/01/19 06:46:26;;;;;;;24.23;15.87;;;-0.80;99.90;;;;;;5091818;28;20438;-64
2022/01/19 06:48:54;;;;;;;28.20;16.77;;;-0.90;99.90;;;;;;5091540;28;20893;-64
2022/01/19 06:51:21;;;;;;;21.57;15.60;;;-1.00;99.90;;;;;;5090787;28;20473;-64
2022/01/19 06:53:47;;;;;;;26.93;16.80;;;-1.10;99.90;;;;;;5091803;28;20454;-66
2022/01/19 06:56:15;;;;;;;23.17;14.33;;;-1.10;99.90;;;;;;5091192;28;20450;-64
2022/01/19 06:58:42;;;;;;;24.27;14.80;;;-1.20;99.90;;;;;;5090910;28;20948;-64
2022/01/19 07:01:09;;;;;;;23.07;15.83;;;-1.20;99.90;;;;;;5090387;28;20468;-64
2022/01/19 07:03:37;;;;;;;22.47;16.00;;;-1.30;99.90;;;;;;5090853;28;20456;-64
2022/01/19 07:06:04;;;;;;;25.20;15.83;;;-1.20;99.90;;;;;;5091512;28;20450;-64
2022/01/19 07:08:31;;;;;;;25.10;17.80;;;-1.20;99.90;;;;;;5091576;28;20445;-64
2022/01/19 07:10:58;;;;;;;24.13;18.53;;;-1.10;99.90;;;;;;5091010;28;20473;-64
2022/01/19 07:13:25;;;;;;;24.03;17.27;;;-1.00;99.90;;;;;;5090475;28;21011;-64
2022/01/19 07:15:52;;;;;;;29.73;17.70;;;-1.00;99.90;;;;;;5090598;28;20446;-65
2022/01/19 07:18:18;;;;;;;31.80;19.17;;;-1.00;99.90;;;;;;5090660;28;20444;-64
2022/01/19 07:20:47;;;;;;;26.60;17.50;;;-1.00;99.90;;;;;;5090267;28;20993;-64
2022/01/19 07:23:14;;;;;;;28.10;17.03;;;-1.00;99.90;;;;;;5091025;28;20442;-64
2022/01/19 07:25:40;;;;;;;27.60;15.73;;;-1.10;99.90;;;;;;5091275;28;20484;-65
2022/01/19 07:28:11;;;;;;;24.07;16.73;;;-1.10;99.90;;;;;;5090991;28;20533;-65
2022/01/19 07:30:38;;;;;;;31.73;17.07;;;-1.10;99.90;;;;;;5090419;28;20454;-64
2022/01/19 07:33:05;;;;;;;26.40;17.23;;;-1.10;99.90;;;;;;5090846;28;20678;-65
2022/01/19 07:35:31;;;;;;;26.27;16.03;;;-1.10;99.90;;;;;;5090904;28;20454;-65
2022/01/19 07:38:00;;;;;;;25.67;17.63;;;-1.10;99.90;;;;;;5090657;28;20533;-66
2022/01/19 07:40:28;;;;;;;25.40;17.47;;;-1.00;99.90;;;;;;5090343;28;20451;-65
2022/01/19 07:42:55;;;;;;;28.10;16.40;;;-0.90;99.90;;;;;;5090951;28;20446;-65
2022/01/19 07:45:22;;;;;;;25.87;16.90;;;-0.90;99.90;;;;;;5091182;28;20478;-64
2022/01/19 07:47:49;;;;;;;28.20;18.10;;;-0.90;99.90;;;;;;5091648;28;20840;-65
2022/01/19 07:50:15;;;;;;;26.23;17.73;;;-0.90;99.90;;;;;;5091281;28;20446;-64
2022/01/19 07:52:42;;;;;;;29.93;17.40;;;-0.90;99.90;;;;;;5093968;28;20466;-64
2022/01/19 07:55:11;;;;;;;26.33;18.30;;;-0.80;99.90;;;;;;5096334;28;20449;-66
2022/01/19 07:57:40;;;;;;;28.37;16.80;;;-0.70;99.90;;;;;;5097848;28;20990;-65
2022/01/19 08:00:08;;;;;;;28.60;17.87;;;-0.60;99.90;;;;;;5096782;28;20453;-65
2022/01/19 08:02:35;;;;;;;28.23;19.43;;;-0.60;99.90;;;;;;5097396;28;20469;-65
2022/01/19 08:05:03;;;;;;;29.60;19.00;;;-0.50;99.90;;;;;;5097031;28;20485;-64
2022/01/19 08:07:30;;;;;;;29.13;18.43;;;-0.40;99.90;;;;;;5096430;28;21115;-65
2022/01/19 08:09:57;;;;;;;29.83;17.53;;;-0.40;99.90;;;;;;5096176;28;20816;-64
2022/01/19 08:12:25;;;;;;;23.53;17.27;;;-0.30;99.90;;;;;;5095982;28;20465;-64
2022/01/19 08:14:52;;;;;;;23.87;18.33;;;-0.20;99.90;;;;;;5095679;28;20453;-65
2022/01/19 08:17:19;;;;;;;31.70;18.07;;;-0.20;99.90;;;;;;5095594;28;20469;-65
2022/01/19 08:19:47;;;;;;;28.73;19.90;;;-0.10;99.90;;;;;;5095347;28;20525;-66
2022/01/19 08:22:14;;;;;;;32.23;19.37;;;0.10;99.90;;;;;;5096065;28;20486;-65
2022/01/19 08:24:41;;;;;;;31.93;19.60;;;0.20;99.90;;;;;;5095441;28;20482;-64
2022/01/19 08:27:08;;;;;;;31.20;19.27;;;0.30;99.90;;;;;;5095773;28;20446;-65
2022/01/19 08:29:36;;;;;;;30.63;20.30;;;0.40;99.90;;;;;;5095378;28;20483;-65
2022/01/19 08:32:04;;;;;;;29.60;19.50;;;0.60;99.90;;;;;;5095721;28;20488;-65
2022/01/19 08:34:30;;;;;;;31.87;19.57;;;0.70;99.90;;;;;;5095824;28;20923;-65
2022/01/19 08:36:58;;;;;;;28.53;18.63;;;0.90;99.90;;;;;;5095513;28;20455;-65
2022/01/19 08:39:25;;;;;;;25.40;18.87;;;1.00;99.90;;;;;;5095107;28;20457;-67
2022/01/19 08:41:52;;;;;;;31.60;20.93;;;1.20;99.90;;;;;;5095668;28;20991;-66
2022/01/19 08:44:20;;;;;;;31.37;20.27;;;1.30;99.90;;;;;;5095390;28;21108;-66
2022/01/19 08:46:48;;;;;;;24.10;18.40;;;1.40;99.90;;;;;;5095449;28;20476;-66
2022/01/19 08:49:16;;;;;;;28.80;18.70;;;1.60;99.90;;;;;;5095436;28;20451;-65
2022/01/19 08:51:43;;;;;;;26.30;18.40;;;1.70;99.90;;;;;;5095375;28;20473;-64
2022/01/19 08:54:11;;;;;;;26.67;17.80;;;1.90;99.90;;;;;;5095364;28;21038;-66
2022/01/19 08:56:38;;;;;;;25.23;19.00;;;2.00;99.90;;;;;;5095590;28;20478;-66
2022/01/19 08:59:05;;;;;;;27.57;19.00;;;2.10;99.90;;;;;;5095124;28;20450;-65
2022/01/19 09:01:32;;;;;;;23.00;16.87;;;2.20;99.90;;;;;;5095197;28;20489;-65
2022/01/19 09:04:00;;;;;;;23.80;17.60;;;2.30;99.90;;;;;;5094286;28;20442;-66
2022/01/19 09:06:27;;;;;;;24.93;17.60;;;2.50;99.90;;;;;;5095434;28;20543;-66
2022/01/19 09:08:54;;;;;;;26.90;18.33;;;2.50;99.90;;;;;;5095122;28;20481;-66
2022/01/19 09:11:21;;;;;;;21.90;17.80;;;2.70;99.90;;;;;;5094745;28;20545;-65
2022/01/19 09:13:49;;;;;;;27.17;16.73;;;2.80;99.90;;;;;;5094790;28;20459;-65
2022/01/19 09:16:16;;;;;;;24.40;17.50;;;2.90;99.90;;;;;;5095054;28;20888;-65
2022/01/19 09:18:43;;;;;;;25.10;16.43;;;3.00;99.90;;;;;;5094798;28;20447;-65
2022/01/19 09:21:11;;;;;;;24.47;17.60;;;3.10;99.90;;;;;;5094675;28;20462;-64
2022/01/19 09:23:38;;;;;;;23.03;16.47;;;3.30;99.90;;;;;;5095985;28;20826;-65
2022/01/19 09:26:05;;;;;;;21.40;15.90;;;3.40;99.90;;;;;;5095242;28;20481;-65
2022/01/19 09:28:32;;;;;;;20.13;16.03;;;3.60;99.90;;;;;;5095141;28;20446;-65
2022/01/19 09:31:02;;;;;;;19.67;16.13;;;3.70;99.90;;;;;;5093981;28;21135;-66
2022/01/19 09:33:30;;;;;;;22.33;15.63;;;3.80;99.90;;;;;;5095707;28;20478;-66
2022/01/19 09:36:17;;;;;;;25.20;15.70;;;3.90;99.90;;;;;;5095662;28;20438;-65
2022/01/19 09:38:45;;;;;;;18.90;14.90;;;4.10;99.90;;;;;;5094852;28;20450;-65
2022/01/19 09:41:12;;;;;;;20.50;15.30;;;4.20;99.90;;;;;;5094532;28;20463;-65
2022/01/19 09:43:39;;;;;;;19.50;15.00;;;4.50;99.90;;;;;;5095187;28;20967;-66
2022/01/19 09:46:06;;;;;;;16.60;14.57;;;4.70;99.90;;;;;;5095398;28;20559;-65
2022/01/19 09:48:34;;;;;;;18.83;14.97;;;4.90;99.90;;;;;;5095333;28;20557;-65
2022/01/19 09:51:01;;;;;;;21.63;15.00;;;5.00;99.90;;;;;;5094377;28;20467;-65
2022/01/19 09:53:29;;;;;;;16.73;14.53;;;5.20;99.90;;;;;;5095295;28;20454;-66
2022/01/19 09:55:57;;;;;;;19.63;14.90;;;5.50;99.90;;;;;;5094750;28;20446;-65
2022/01/19 09:58:24;;;;;;;20.23;14.50;;;5.60;99.90;;;;;;5094706;28;21044;-65
2022/01/19 10:00:51;;;;;;;17.93;13.90;;;6.00;99.90;;;;;;5093973;28;20462;-66
2022/01/19 10:03:20;;;;;;;18.90;13.83;;;6.50;99.90;;;;;;5094275;28;20482;-65
2022/01/19 10:06:03;;;;;;;18.20;13.80;;;7.10;99.90;;;;;;5094751;28;20494;-65
2022/01/19 10:08:32;;;;;;;14.50;13.00;;;7.40;99.90;;;;;;5094194;28;20443;-65
2022/01/19 10:11:13;;;;;;;17.40;13.50;;;7.40;99.90;;;;;;5094377;28;20477;-65
2022/01/19 10:19:19;;;;;;;17.53;13.00;;;7.50;99.90;;;;;;5094363;28;20426;-65
2022/01/19 10:22:08;;;;;;;16.40;14.10;;;7.30;99.90;;;;;;5094588;28;20467;-65
2022/01/19 10:24:41;;;;;;;16.87;13.87;;;7.00;99.90;;;;;;5093106;28;20861;-65
2022/01/19 10:27:32;;;;;;;16.17;13.43;;;6.80;99.90;;;;;;5092832;28;20459;-65
2022/01/19 10:30:24;;;;;;;15.13;13.53;;;7.00;99.90;;;;;;5092833;28;20934;-65
2022/01/19 10:32:55;;;;;;;17.73;13.10;;;7.70;99.90;;;;;;5092897;28;20481;-65
2022/01/19 10:35:29;;;;;;;16.63;14.20;;;8.30;99.90;;;;;;5093394;28;20439;-65
2022/01/19 10:38:14;;;;;;;13.93;12.47;;;8.90;99.90;;;;;;5092695;28;20481;-66
2022/01/19 10:40:42;;;;;;;16.80;13.10;;;9.40;99.90;;;;;;5091916;28;20498;-66
2022/01/19 10:43:31;;;;;;;13.90;12.40;;;9.70;99.90;;;;;;5092331;28;20449;-65
2022/01/19 10:45:59;;;;;;;17.20;12.53;;;10.30;99.90;;;;;;5092354;28;20478;-65
2022/01/19 10:48:38;;;;;;;16.17;12.90;;;10.40;99.90;;;;;;5091541;28;20457;-65
2022/01/19 10:51:13;;;;;;;15.60;13.10;;;10.70;99.90;;;;;;5091886;28;20458;-65
2022/01/19 10:53:41;;;;;;;13.30;11.93;;;11.10;99.90;;;;;;5092360;28;20533;-66
2022/01/19 10:56:24;;;;;;;16.23;13.20;;;11.10;99.90;;;;;;5092562;28;20991;-65
2022/01/19 10:58:58;;;;;;;14.37;12.23;;;10.70;99.90;;;;;;5092533;28;20458;-66
2022/01/19 11:01:40;;;;;;;16.87;12.80;;;10.90;99.90;;;;;;5091373;28;21066;-65
2022/01/19 11:04:26;;;;;;;17.57;12.57;;;11.20;99.90;;;;;;5092031;28;20446;-66
2022/01/19 11:06:54;;;;;;;21.83;12.87;;;11.10;99.90;;;;;;5091732;28;20482;-65
2022/01/19 11:09:26;;;;;;;13.93;12.13;;;10.20;99.90;;;;;;5092289;28;20450;-65
2022/01/19 11:11:55;;;;;;;18.13;14.17;;;9.20;99.90;;;;;;5091772;28;20482;-66
2022/01/19 11:14:24;;;;;;;16.70;12.87;;;8.30;99.90;;;;;;5092310;28;20533;-65
2022/01/19 11:16:52;;;;;;;17.60;13.23;;;7.60;99.90;;;;;;5091631;28;20996;-65
2022/01/19 11:19:20;;;;;;;21.57;14.27;;;6.90;99.90;;;;;;5091494;28;20442;-66
2022/01/19 11:22:06;;;;;;;17.00;13.37;;;6.50;99.90;;;;;;5091768;28;20471;-64
2022/01/19 11:24:39;;;;;;;16.57;13.10;;;6.20;99.90;;;;;;5092077;28;20453;-65
2022/01/19 11:27:07;;;;;;;20.40;14.73;;;6.00;99.90;;;;;;5095342;28;20851;-65
2022/01/19 11:29:38;;;;;;;16.33;12.90;;;5.90;99.90;;;;;;5095556;28;20449;-66
2022/01/19 11:32:16;;;;;;;18.30;14.00;;;5.80;99.90;;;;;;5095829;28;20481;-65
2022/01/19 11:34:46;;;;;;;20.43;13.43;;;5.80;99.90;;;;;;5096044;28;20838;-64
2022/01/19 11:37:14;;;;;;;17.07;13.60;;;5.70;99.90;;;;;;5095760;28;20477;-64
2022/01/19 11:40:07;;;;;;;18.17;14.00;;;5.70;99.90;;;;;;5095965;28;20567;-65
2022/01/19 11:42:33;;;;;;;15.70;12.87;;;5.70;99.90;;;;;;5096667;28;20549;-65
2022/01/19 11:45:03;;;;;;;17.60;14.13;;;5.80;99.90;;;;;;5095964;28;20456;-65
2022/01/19 11:47:31;;;;;;;17.57;13.60;;;5.70;99.90;;;;;;5097157;28;20558;-65
2022/01/19 11:50:00;;;;;;;15.20;12.80;;;5.70;99.90;;;;;;5096373;28;20450;-65
2022/01/19 11:52:53;;;;;;;16.07;12.47;;;5.70;99.90;;;;;;5096225;28;20826;-65
2022/01/19 11:55:23;;;;;;;13.77;11.57;;;5.70;99.90;;;;;;5096401;28;20873;-65
2022/01/19 11:58:10;;;;;;;17.17;13.57;;;5.60;99.90;;;;;;5096744;28;20511;-65
2022/01/19 12:00:38;;;;;;;18.10;12.53;;;5.40;99.90;;;;;;5096402;28;20454;-65
2022/01/19 12:03:18;;;;;;;15.07;11.63;;;5.40;99.90;;;;;;5096360;28;20532;-66
2022/01/19 12:05:45;;;;;;;16.40;11.53;;;5.50;99.90;;;;;;5096551;28;20568;-65
2022/01/19 12:08:31;;;;;;;16.53;12.30;;;5.60;99.90;;;;;;5096835;28;20538;-65
2022/01/19 12:11:02;;;;;;;17.30;12.13;;;5.50;99.90;;;;;;5095779;28;20466;-66
2022/01/19 12:13:43;;;;;;;15.53;11.13;;;5.50;99.90;;;;;;5096834;28;20474;-66
2022/01/19 12:16:25;;;;;;;14.63;11.23;;;5.50;99.90;;;;;;5096189;28;20443;-66
2022/01/19 12:18:54;;;;;;;15.20;10.80;;;5.50;99.90;;;;;;5096560;28;20869;-66
2022/01/19 12:21:42;;;;;;;14.10;11.40;;;5.60;99.90;;;;;;5095692;28;20471;-66
2022/01/19 12:24:25;;;;;;;13.97;10.70;;;5.60;99.90;;;;;;5096659;28;20451;-66
2022/01/19 12:27:25;;;;;;;12.73;10.80;;;5.60;99.90;;;;;;5097514;28;20478;-65
2022/01/19 12:30:02;;;;;;;14.73;10.90;;;5.70;99.90;;;;;;5097481;28;20955;-65
2022/01/19 12:32:52;;;;;;;15.00;10.23;;;5.70;99.90;;;;;;5097487;28;20524;-65
2022/01/19 12:35:34;;;;;;;12.67;9.60;;;5.80;99.90;;;;;;5097726;28;20466;-65
2022/01/19 12:38:02;;;;;;;12.10;9.57;;;5.70;99.90;;;;;;5092932;28;20451;-65
2022/01/19 12:40:44;;;;;;;12.70;9.90;;;5.70;99.90;;;;;;5089651;28;20537;-66
2022/01/19 12:43:28;;;;;;;11.40;8.00;;;5.80;99.90;;;;;;5085314;28;21073;-67
2022/01/19 12:45:56;;;;;;;13.10;9.53;;;6.00;99.90;;;;;;5083559;28;20471;-65
2022/01/19 12:48:41;;;;;;;13.20;9.13;;;6.20;99.90;;;;;;5081117;28;20451;-65
2022/01/19 12:51:40;;;;;;;13.10;8.90;;;6.40;99.90;;;;;;5071442;28;20479;-65
2022/01/19 12:54:08;;;;;;;10.83;8.63;;;6.60;99.90;;;;;;5072581;28;20450;-65
2022/01/19 12:56:35;;;;;;;13.20;9.70;;;6.90;99.90;;;;;;5072294;28;20467;-65
2022/01/19 12:59:07;;;;;;;11.90;9.83;;;7.10;99.90;;;;;;5071126;28;20478;-65
2022/01/19 13:01:34;;;;;;;15.90;8.73;;;7.30;99.90;;;;;;5070066;28;20458;-66
2022/01/19 13:04:01;;;;;;;12.37;8.73;;;7.50;99.90;;;;;;5072504;28;20454;-66
2022/01/19 13:06:31;;;;;;;12.10;9.23;;;7.50;99.90;;;;;;5071629;28;20540;-65
2022/01/19 13:09:09;;;;;;;11.37;9.03;;;7.40;99.90;;;;;;5071839;28;20487;-66
2022/01/19 13:11:38;;;;;;;11.00;9.13;;;7.30;99.90;;;;;;5072398;28;20827;-65
2022/01/19 13:14:09;;;;;;;11.77;8.40;;;7.20;99.90;;;;;;5071941;28;20451;-65
2022/01/19 13:16:44;;;;;;;11.33;8.77;;;7.20;99.90;;;;;;5077425;28;20446;-65
2022/01/19 13:19:14;;;;;;;11.67;8.10;;;7.40;99.90;;;;;;5091008;28;20925;-65
2022/01/19 13:21:43;;;;;;;9.73;7.57;;;7.50;99.90;;;;;;5090343;28;20467;-65
2022/01/19 13:24:15;;;;;;;10.50;8.23;;;7.60;99.90;;;;;;5090286;28;20453;-65
2022/01/19 13:26:49;;;;;;;8.80;6.23;;;7.80;99.90;;;;;;5090510;28;20969;-66
2022/01/19 13:29:31;;;;;;;9.20;6.17;;;7.70;99.90;;;;;;5073815;28;20819;-65
2022/01/19 13:32:20;;;;;;;10.40;7.00;;;7.40;99.90;;;;;;5091017;28;20930;-65
2022/01/19 13:34:53;;;;;;;8.33;6.87;;;7.30;99.90;;;;;;5087817;28;20485;-67
2022/01/19 13:37:21;;;;;;;12.30;6.70;;;7.20;99.90;;;;;;5075710;28;20435;-65
2022/01/19 13:39:59;;;;;;;8.17;6.83;;;7.10;99.90;;;;;;5090845;28;20470;-65
2022/01/19 13:42:37;;;;;;;12.37;7.57;;;7.00;99.90;;;;;;5091194;28;20451;-66
2022/01/19 13:45:13;;;;;;;11.97;7.00;;;7.10;99.90;;;;;;5093946;28;20442;-65
2022/01/19 13:48:03;;;;;;;10.57;7.20;;;7.10;99.90;;;;;;5094094;28;20466;-65
2022/01/19 13:50:30;;;;;;;9.80;7.30;;;7.00;99.90;;;;;;5092270;28;20866;-65
2022/01/19 13:52:58;;;;;;;9.30;6.53;;;7.00;99.90;;;;;;5093658;28;20443;-66
2022/01/19 13:55:25;;;;;;;8.80;6.63;;;7.10;99.90;;;;;;5093318;28;20443;-65
2022/01/19 13:57:52;;;;;;;12.00;7.13;;;7.10;99.90;;;;;;5092942;28;20443;-66
2022/01/19 14:00:21;;;;;;;7.40;6.17;;;7.20;99.90;;;;;;5092738;28;20450;-65
2022/01/19 14:03:02;;;;;;;12.53;6.07;;;7.20;99.90;;;;;;5092945;28;20494;-66
2022/01/19 14:05:39;;;;;;;9.40;6.87;;;7.20;99.90;;;;;;5092473;28;20898;-65